sensor_id;sensor_type;location;lat;lon;timestamp;pressure;altitude;pressure_sealevel;temperature;humidity
34983;BME280;21187;50.976;13.720;2023-03-23T00:02:41;97503.13;;;15.46;41.80
34983;BME280;21187;50.976;13.720;2023-03-23T00:07:41;97507.41;;;15.47;41.35
34983;BME280;21187;50.976;13.720;2023-03-23T00:12:45;97503.91;;;15.46;41.33
34983;BME280;21187;50.976;13.720;2023-03-23T00:17:49;97505.47;;;15.47;40.99
34983;BME280;21187;50.976;13.720;2023-03-23T00:22:51;97506.94;;;15.63;40.55
34983;BME280;21187;50.976;13.720;2023-03-23T00:27:52;97496.38;;;15.65;40.51
34983;BME280;21187;50.976;13.720;2023-03-23T00:32:52;97489.75;;;15.62;40.79
34983;BME280;21187;50.976;13.720;2023-03-23T00:37:53;97496.00;;;15.63;40.52
34983;BME280;21187;50.976;13.720;2023-03-23T00:42:56;97485.09;;;15.63;40.12
34983;BME280;21187;50.976;13.720;2023-03-23T00:47:56;97480.00;;;15.65;40.16
34983;BME280;21187;50.976;13.720;2023-03-23T00:53:05;97476.47;;;15.72;39.57
34983;BME280;21187;50.976;13.720;2023-03-23T00:58:05;97473.28;;;15.77;39.16
34983;BME280;21187;50.976;13.720;2023-03-23T01:03:07;97463.16;;;15.77;38.94
34983;BME280;21187;50.976;13.720;2023-03-23T01:08:09;97466.25;;;15.79;38.95
34983;BME280;21187;50.976;13.720;2023-03-23T01:13:11;97452.25;;;15.77;38.65
34983;BME280;21187;50.976;13.720;2023-03-23T01:18:12;97436.63;;;15.82;38.53
34983;BME280;21187;50.976;13.720;2023-03-23T01:23:13;97433.09;;;15.85;38.42
34983;BME280;21187;50.976;13.720;2023-03-23T01:28:13;97424.13;;;15.88;38.28
34983;BME280;21187;50.976;13.720;2023-03-23T01:33:15;97424.47;;;15.90;38.19
34983;BME280;21187;50.976;13.720;2023-03-23T01:38:17;97413.19;;;15.88;37.88
34983;BME280;21187;50.976;13.720;2023-03-23T01:43:17;97405.31;;;15.93;37.63
34983;BME280;21187;50.976;13.720;2023-03-23T01:48:25;97395.91;;;15.98;37.42
34983;BME280;21187;50.976;13.720;2023-03-23T01:53:50;97396.63;;;16.06;37.26
34983;BME280;21187;50.976;13.720;2023-03-23T01:58:53;97401.28;;;16.09;37.22
34983;BME280;21187;50.976;13.720;2023-03-23T02:03:57;97402.06;;;16.09;37.28
34983;BME280;21187;50.976;13.720;2023-03-23T02:08:58;97400.88;;;16.10;36.96
34983;BME280;21187;50.976;13.720;2023-03-23T02:14:00;97396.16;;;16.14;37.04
34983;BME280;21187;50.976;13.720;2023-03-23T02:35:18;97392.13;;;16.26;36.39
34983;BME280;21187;50.976;13.720;2023-03-23T02:40:24;97398.78;;;16.25;36.44
34983;BME280;21187;50.976;13.720;2023-03-23T02:45:28;97400.34;;;16.23;36.44
34983;BME280;21187;50.976;13.720;2023-03-23T02:50:32;97387.88;;;16.22;36.14
34983;BME280;21187;50.976;13.720;2023-03-23T02:55:34;97397.22;;;16.24;36.62
34983;BME280;21187;50.976;13.720;2023-03-23T03:00:43;97398.00;;;16.25;36.54
34983;BME280;21187;50.976;13.720;2023-03-23T03:10:59;97377.78;;;16.19;36.74
34983;BME280;21187;50.976;13.720;2023-03-23T03:16:18;97380.09;;;16.20;36.75
34983;BME280;21187;50.976;13.720;2023-03-23T03:21:26;97380.06;;;16.24;37.17
34983;BME280;21187;50.976;13.720;2023-03-23T03:26:31;97367.16;;;16.24;37.54
34983;BME280;21187;50.976;13.720;2023-03-23T03:31:55;97376.16;;;16.25;37.55
34983;BME280;21187;50.976;13.720;2023-03-23T03:37:00;97381.63;;;16.25;37.59
34983;BME280;21187;50.976;13.720;2023-03-23T03:42:01;97379.44;;;16.43;37.20
34983;BME280;21187;50.976;13.720;2023-03-23T03:47:02;97375.63;;;16.37;37.79
34983;BME280;21187;50.976;13.720;2023-03-23T03:52:03;97373.84;;;16.23;37.81
34983;BME280;21187;50.976;13.720;2023-03-23T03:57:12;97369.88;;;16.28;37.50
34983;BME280;21187;50.976;13.720;2023-03-23T04:02:31;97373.78;;;16.27;38.00
34983;BME280;21187;50.976;13.720;2023-03-23T04:07:32;97372.59;;;16.28;37.92
34983;BME280;21187;50.976;13.720;2023-03-23T04:12:33;97375.25;;;16.35;37.82
34983;BME280;21187;50.976;13.720;2023-03-23T04:17:54;97358.06;;;16.35;38.12
34983;BME280;21187;50.976;13.720;2023-03-23T04:22:58;97358.00;;;16.42;37.90
34983;BME280;21187;50.976;13.720;2023-03-23T04:28:01;97353.41;;;16.35;37.98
34983;BME280;21187;50.976;13.720;2023-03-23T04:33:08;97348.72;;;16.32;38.12
34983;BME280;21187;50.976;13.720;2023-03-23T04:38:18;97344.81;;;16.33;38.12
34983;BME280;21187;50.976;13.720;2023-03-23T04:43:27;97338.59;;;16.33;38.10
34983;BME280;21187;50.976;13.720;2023-03-23T04:48:35;97344.09;;;16.29;38.23
34983;BME280;21187;50.976;13.720;2023-03-23T04:53:44;97338.34;;;16.20;38.20
34983;BME280;21187;50.976;13.720;2023-03-23T04:58:45;97347.72;;;16.19;38.27
34983;BME280;21187;50.976;13.720;2023-03-23T05:04:03;97341.91;;;16.17;38.30
34983;BME280;21187;50.976;13.720;2023-03-23T05:09:06;97323.13;;;16.19;38.34
34983;BME280;21187;50.976;13.720;2023-03-23T05:14:08;97338.34;;;16.20;38.51
34983;BME280;21187;50.976;13.720;2023-03-23T05:19:09;97343.50;;;16.14;38.46
34983;BME280;21187;50.976;13.720;2023-03-23T05:24:11;97349.09;;;16.00;38.83
34983;BME280;21187;50.976;13.720;2023-03-23T05:29:14;97338.94;;;16.00;38.72
34983;BME280;21187;50.976;13.720;2023-03-23T05:34:30;97337.78;;;16.01;39.07
34983;BME280;21187;50.976;13.720;2023-03-23T05:39:34;97335.78;;;16.05;38.86
34983;BME280;21187;50.976;13.720;2023-03-23T05:44:55;97337.75;;;16.05;38.92
34983;BME280;21187;50.976;13.720;2023-03-23T05:49:56;97339.66;;;16.08;38.71
34983;BME280;21187;50.976;13.720;2023-03-23T05:54:59;97347.78;;;16.50;37.94
34983;BME280;21187;50.976;13.720;2023-03-23T06:00:00;97333.97;;;16.60;37.81
34983;BME280;21187;50.976;13.720;2023-03-23T06:05:13;97344.13;;;16.25;38.34
34983;BME280;21187;50.976;13.720;2023-03-23T06:10:18;97346.50;;;16.23;38.38
34983;BME280;21187;50.976;13.720;2023-03-23T06:15:26;97338.19;;;16.65;37.86
34983;BME280;21187;50.976;13.720;2023-03-23T06:20:41;97341.97;;;16.75;37.60
34983;BME280;21187;50.976;13.720;2023-03-23T06:26:06;97328.69;;;16.73;37.56
34983;BME280;21187;50.976;13.720;2023-03-23T06:31:08;97321.69;;;16.72;37.62
34983;BME280;21187;50.976;13.720;2023-03-23T06:36:10;97338.81;;;16.76;37.57
34983;BME280;21187;50.976;13.720;2023-03-23T06:41:23;97335.63;;;16.82;37.87
34983;BME280;21187;50.976;13.720;2023-03-23T06:46:27;97353.50;;;16.90;37.61
34983;BME280;21187;50.976;13.720;2023-03-23T06:51:30;97359.00;;;16.86;38.01
34983;BME280;21187;50.976;13.720;2023-03-23T06:56:31;97368.78;;;16.84;38.16
34983;BME280;21187;50.976;13.720;2023-03-23T07:01:32;97374.59;;;16.89;38.12
34983;BME280;21187;50.976;13.720;2023-03-23T07:06:35;97379.22;;;16.96;38.05
34983;BME280;21187;50.976;13.720;2023-03-23T07:11:36;97382.22;;;17.05;37.95
34983;BME280;21187;50.976;13.720;2023-03-23T07:16:46;97377.19;;;16.69;38.75
34983;BME280;21187;50.976;13.720;2023-03-23T07:21:47;97391.66;;;16.35;39.70
34983;BME280;21187;50.976;13.720;2023-03-23T07:26:50;97398.66;;;16.36;39.65
34983;BME280;21187;50.976;13.720;2023-03-23T07:31:51;97386.81;;;16.46;39.90
34983;BME280;21187;50.976;13.720;2023-03-23T07:36:53;97397.63;;;16.57;39.45
34983;BME280;21187;50.976;13.720;2023-03-23T07:41:56;97403.03;;;16.64;39.43
34983;BME280;21187;50.976;13.720;2023-03-23T07:47:10;97406.06;;;16.70;39.39
34983;BME280;21187;50.976;13.720;2023-03-23T07:52:11;97415.41;;;16.73;39.31
34983;BME280;21187;50.976;13.720;2023-03-23T07:57:11;97416.19;;;16.73;39.22
34983;BME280;21187;50.976;13.720;2023-03-23T08:02:17;97413.50;;;17.04;38.80
34983;BME280;21187;50.976;13.720;2023-03-23T08:07:23;97418.84;;;16.80;39.79
34983;BME280;21187;50.976;13.720;2023-03-23T08:12:27;97415.28;;;16.84;39.52
34983;BME280;21187;50.976;13.720;2023-03-23T08:17:47;97416.09;;;16.80;39.42
34983;BME280;21187;50.976;13.720;2023-03-23T08:23:20;97426.88;;;17.26;38.39
34983;BME280;21187;50.976;13.720;2023-03-23T08:28:42;97429.97;;;17.28;38.52
34983;BME280;21187;50.976;13.720;2023-03-23T08:34:15;97438.25;;;17.52;38.07
34983;BME280;21187;50.976;13.720;2023-03-23T08:39:45;97445.56;;;17.31;38.54
34983;BME280;21187;50.976;13.720;2023-03-23T08:45:21;97425.00;;;17.19;38.67
34983;BME280;21187;50.976;13.720;2023-03-23T08:50:43;97438.34;;;17.17;39.02
34983;BME280;21187;50.976;13.720;2023-03-23T08:56:20;97446.19;;;17.15;38.88
34983;BME280;21187;50.976;13.720;2023-03-23T09:01:40;97450.88;;;17.15;39.27
34983;BME280;21187;50.976;13.720;2023-03-23T09:06:56;97448.06;;;17.18;39.33
34983;BME280;21187;50.976;13.720;2023-03-23T09:11:58;97448.91;;;17.15;39.58
34983;BME280;21187;50.976;13.720;2023-03-23T09:16:59;97455.63;;;17.10;39.84
34983;BME280;21187;50.976;13.720;2023-03-23T09:22:00;97461.88;;;17.11;40.08
34983;BME280;21187;50.976;13.720;2023-03-23T09:27:01;97454.41;;;17.42;39.68
34983;BME280;21187;50.976;13.720;2023-03-23T09:32:03;97462.09;;;17.51;39.81
34983;BME280;21187;50.976;13.720;2023-03-23T09:37:04;97473.91;;;17.44;40.94
34983;BME280;21187;50.976;13.720;2023-03-23T09:53:02;97477.22;;;17.32;42.84
34983;BME280;21187;50.976;13.720;2023-03-23T09:58:18;97471.03;;;17.28;43.32
34983;BME280;21187;50.976;13.720;2023-03-23T10:03:26;97467.09;;;17.29;43.61
34983;BME280;21187;50.976;13.720;2023-03-23T10:08:31;97468.03;;;17.19;44.40
34983;BME280;21187;50.976;13.720;2023-03-23T10:19:22;97480.41;;;17.27;44.46
34983;BME280;21187;50.976;13.720;2023-03-23T10:24:36;97474.09;;;17.30;44.23
34983;BME280;21187;50.976;13.720;2023-03-23T10:30:19;97466.16;;;17.39;44.05
34983;BME280;21187;50.976;13.720;2023-03-23T10:41:08;97460.59;;;17.46;44.20
34983;BME280;21187;50.976;13.720;2023-03-23T10:51:23;97457.19;;;17.66;43.81
34983;BME280;21187;50.976;13.720;2023-03-23T10:56:28;97445.31;;;17.76;43.60
34983;BME280;21187;50.976;13.720;2023-03-23T11:01:31;97460.91;;;17.79;42.98
34983;BME280;21187;50.976;13.720;2023-03-23T11:06:33;97460.66;;;17.70;42.93
34983;BME280;21187;50.976;13.720;2023-03-23T11:11:53;97457.06;;;17.73;42.81
34983;BME280;21187;50.976;13.720;2023-03-23T11:16:59;97466.47;;;17.72;42.68
34983;BME280;21187;50.976;13.720;2023-03-23T11:27:07;97467.56;;;17.78;42.74
34983;BME280;21187;50.976;13.720;2023-03-23T11:32:14;97472.22;;;17.82;42.86
34983;BME280;21187;50.976;13.720;2023-03-23T11:47:40;97488.03;;;17.70;43.47
34983;BME280;21187;50.976;13.720;2023-03-23T11:52:47;97501.19;;;17.52;44.59
34983;BME280;21187;50.976;13.720;2023-03-23T11:57:52;97509.59;;;17.37;45.42
34983;BME280;21187;50.976;13.720;2023-03-23T12:03:13;97501.69;;;17.16;45.95
34983;BME280;21187;50.976;13.720;2023-03-23T12:13:50;97502.53;;;17.09;46.79
34983;BME280;21187;50.976;13.720;2023-03-23T12:25:02;97515.09;;;17.37;47.21
34983;BME280;21187;50.976;13.720;2023-03-23T12:30:24;97497.41;;;17.42;46.96
34983;BME280;21187;50.976;13.720;2023-03-23T12:41:51;97474.09;;;17.30;46.48
34983;BME280;21187;50.976;13.720;2023-03-23T13:02:27;97463.47;;;17.63;45.42
34983;BME280;21187;50.976;13.720;2023-03-23T13:07:34;97464.22;;;17.67;45.10
34983;BME280;21187;50.976;13.720;2023-03-23T13:12:36;97464.88;;;17.75;44.71
34983;BME280;21187;50.976;13.720;2023-03-23T13:17:46;97463.78;;;17.96;43.94
34983;BME280;21187;50.976;13.720;2023-03-23T13:24:08;97462.13;;;18.02;43.50
34983;BME280;21187;50.976;13.720;2023-03-23T13:28:49;97467.25;;;18.00;43.00
34983;BME280;21187;50.976;13.720;2023-03-23T13:33:57;97454.69;;;18.03;43.05
34983;BME280;21187;50.976;13.720;2023-03-23T13:39:01;97459.03;;;18.00;42.96
34983;BME280;21187;50.976;13.720;2023-03-23T13:44:27;97450.88;;;17.96;43.06
34983;BME280;21187;50.976;13.720;2023-03-23T13:49:49;97439.50;;;17.98;43.00
34983;BME280;21187;50.976;13.720;2023-03-23T13:54:51;97436.13;;;18.10;42.71
34983;BME280;21187;50.976;13.720;2023-03-23T13:59:58;97421.06;;;18.22;42.26
34983;BME280;21187;50.976;13.720;2023-03-23T14:10:18;97416.94;;;18.74;41.66
34983;BME280;21187;50.976;13.720;2023-03-23T14:15:19;97412.75;;;18.90;40.99
34983;BME280;21187;50.976;13.720;2023-03-23T14:20:31;97406.88;;;18.88;40.79
34983;BME280;21187;50.976;13.720;2023-03-23T14:25:33;97412.66;;;18.93;40.67
34983;BME280;21187;50.976;13.720;2023-03-23T14:30:35;97404.34;;;18.97;40.48
34983;BME280;21187;50.976;13.720;2023-03-23T14:35:40;97420.31;;;19.02;40.47
34983;BME280;21187;50.976;13.720;2023-03-23T14:40:42;97432.28;;;18.92;40.26
34983;BME280;21187;50.976;13.720;2023-03-23T14:45:43;97420.19;;;18.49;41.67
34983;BME280;21187;50.976;13.720;2023-03-23T14:50:52;97414.28;;;18.51;41.92
34983;BME280;21187;50.976;13.720;2023-03-23T14:56:03;97427.06;;;18.77;41.20
34983;BME280;21187;50.976;13.720;2023-03-23T15:01:09;97422.22;;;18.85;41.15
34983;BME280;21187;50.976;13.720;2023-03-23T15:06:17;97420.03;;;18.76;41.01
34983;BME280;21187;50.976;13.720;2023-03-23T15:11:27;97420.19;;;18.69;41.03
34983;BME280;21187;50.976;13.720;2023-03-23T15:16:33;97412.72;;;18.50;41.53
34983;BME280;21187;50.976;13.720;2023-03-23T15:22:03;97424.53;;;18.46;41.17
34983;BME280;21187;50.976;13.720;2023-03-23T15:27:17;97424.66;;;18.39;41.46
34983;BME280;21187;50.976;13.720;2023-03-23T15:32:31;97423.63;;;18.53;41.10
34983;BME280;21187;50.976;13.720;2023-03-23T15:37:34;97433.31;;;18.58;40.23
34983;BME280;21187;50.976;13.720;2023-03-23T15:42:37;97435.44;;;18.50;40.63
34983;BME280;21187;50.976;13.720;2023-03-23T15:47:45;97444.06;;;18.49;40.69
34983;BME280;21187;50.976;13.720;2023-03-23T15:52:47;97455.13;;;18.45;40.56
34983;BME280;21187;50.976;13.720;2023-03-23T15:57:48;97464.75;;;18.33;40.46
34983;BME280;21187;50.976;13.720;2023-03-23T16:03:03;97464.84;;;18.26;40.93
34983;BME280;21187;50.976;13.720;2023-03-23T16:08:09;97474.25;;;18.25;40.92
34983;BME280;21187;50.976;13.720;2023-03-23T16:13:12;97477.72;;;18.05;41.21
34983;BME280;21187;50.976;13.720;2023-03-23T16:18:19;97454.81;;;17.92;40.97
34983;BME280;21187;50.976;13.720;2023-03-23T16:23:23;97468.69;;;17.81;41.47
34983;BME280;21187;50.976;13.720;2023-03-23T16:28:25;97461.78;;;17.73;41.18
34983;BME280;21187;50.976;13.720;2023-03-23T16:33:27;97498.81;;;17.54;41.83
34983;BME280;21187;50.976;13.720;2023-03-23T16:38:29;97506.03;;;17.40;42.35
34983;BME280;21187;50.976;13.720;2023-03-23T16:43:31;97510.91;;;17.29;43.02
34983;BME280;21187;50.976;13.720;2023-03-23T16:48:33;97506.78;;;17.13;43.74
34983;BME280;21187;50.976;13.720;2023-03-23T16:53:35;97512.56;;;17.19;43.91
34983;BME280;21187;50.976;13.720;2023-03-23T16:58:37;97519.91;;;16.95;44.59
34983;BME280;21187;50.976;13.720;2023-03-23T17:03:39;97511.31;;;16.93;44.72
34983;BME280;21187;50.976;13.720;2023-03-23T17:08:44;97521.50;;;16.89;45.15
34983;BME280;21187;50.976;13.720;2023-03-23T17:13:47;97521.63;;;16.74;45.46
34983;BME280;21187;50.976;13.720;2023-03-23T17:18:48;97523.34;;;16.61;45.82
34983;BME280;21187;50.976;13.720;2023-03-23T17:23:50;97555.47;;;16.50;46.43
34983;BME280;21187;50.976;13.720;2023-03-23T17:28:53;97555.09;;;16.47;46.43
34983;BME280;21187;50.976;13.720;2023-03-23T17:33:55;97550.13;;;16.35;47.23
34983;BME280;21187;50.976;13.720;2023-03-23T17:38:58;97551.03;;;16.21;47.35
34983;BME280;21187;50.976;13.720;2023-03-23T17:44:00;97551.47;;;16.12;48.08
34983;BME280;21187;50.976;13.720;2023-03-23T17:49:02;97559.72;;;16.09;48.07
34983;BME280;21187;50.976;13.720;2023-03-23T17:54:04;97548.06;;;16.01;48.06
34983;BME280;21187;50.976;13.720;2023-03-23T17:59:06;97547.22;;;16.11;48.02
34983;BME280;21187;50.976;13.720;2023-03-23T18:04:08;97553.13;;;15.99;48.30
34983;BME280;21187;50.976;13.720;2023-03-23T18:09:10;97542.69;;;15.87;48.86
34983;BME280;21187;50.976;13.720;2023-03-23T18:14:13;97555.25;;;15.66;49.59
34983;BME280;21187;50.976;13.720;2023-03-23T18:19:15;97558.38;;;15.64;49.44
34983;BME280;21187;50.976;13.720;2023-03-23T18:24:17;97558.31;;;15.75;49.44
34983;BME280;21187;50.976;13.720;2023-03-23T18:29:19;97563.03;;;15.71;49.25
34983;BME280;21187;50.976;13.720;2023-03-23T18:34:20;97554.50;;;15.62;49.18
34983;BME280;21187;50.976;13.720;2023-03-23T18:39:22;97547.47;;;15.61;49.44
34983;BME280;21187;50.976;13.720;2023-03-23T18:44:24;97555.28;;;15.62;49.46
34983;BME280;21187;50.976;13.720;2023-03-23T18:49:26;97553.69;;;15.65;49.39
34983;BME280;21187;50.976;13.720;2023-03-23T18:54:29;97548.22;;;15.72;48.87
34983;BME280;21187;50.976;13.720;2023-03-23T18:59:35;97550.47;;;15.88;48.67
34983;BME280;21187;50.976;13.720;2023-03-23T19:04:37;97555.13;;;15.95;48.25
34983;BME280;21187;50.976;13.720;2023-03-23T19:09:40;97544.94;;;15.95;48.03
34983;BME280;21187;50.976;13.720;2023-03-23T19:14:42;97549.75;;;15.80;48.45
34983;BME280;21187;50.976;13.720;2023-03-23T19:19:44;97545.47;;;15.76;48.83
34983;BME280;21187;50.976;13.720;2023-03-23T19:24:46;97547.06;;;15.70;48.92
34983;BME280;21187;50.976;13.720;2023-03-23T19:29:48;97545.84;;;15.82;48.17
34983;BME280;21187;50.976;13.720;2023-03-23T19:34:49;97552.03;;;15.93;47.84
34983;BME280;21187;50.976;13.720;2023-03-23T19:39:51;97548.84;;;15.98;47.65
34983;BME280;21187;50.976;13.720;2023-03-23T19:44:54;97530.13;;;16.00;47.65
34983;BME280;21187;50.976;13.720;2023-03-23T19:49:56;97534.41;;;16.01;47.64
34983;BME280;21187;50.976;13.720;2023-03-23T19:55:00;97525.56;;;15.83;48.02
34983;BME280;21187;50.976;13.720;2023-03-23T20:00:03;97535.69;;;15.78;48.15
34983;BME280;21187;50.976;13.720;2023-03-23T20:05:08;97541.59;;;15.73;48.13
34983;BME280;21187;50.976;13.720;2023-03-23T20:10:10;97545.06;;;15.77;48.12
34983;BME280;21187;50.976;13.720;2023-03-23T20:15:13;97548.03;;;16.05;47.53
34983;BME280;21187;50.976;13.720;2023-03-23T20:20:15;97547.22;;;16.11;47.20
34983;BME280;21187;50.976;13.720;2023-03-23T20:25:18;97548.31;;;16.18;47.07
34983;BME280;21187;50.976;13.720;2023-03-23T20:30:20;97544.78;;;16.21;47.14
34983;BME280;21187;50.976;13.720;2023-03-23T20:35:22;97535.38;;;16.25;46.94
34983;BME280;21187;50.976;13.720;2023-03-23T20:40:24;97548.63;;;16.27;46.80
34983;BME280;21187;50.976;13.720;2023-03-23T20:45:26;97557.22;;;16.29;46.97
34983;BME280;21187;50.976;13.720;2023-03-23T20:50:28;97557.25;;;16.22;46.91
34983;BME280;21187;50.976;13.720;2023-03-23T20:55:30;97553.34;;;16.23;47.01
34983;BME280;21187;50.976;13.720;2023-03-23T21:00:33;97549.06;;;16.22;47.01
34983;BME280;21187;50.976;13.720;2023-03-23T21:05:38;97543.22;;;16.20;47.07
34983;BME280;21187;50.976;13.720;2023-03-23T21:10:41;97542.91;;;16.10;47.06
34983;BME280;21187;50.976;13.720;2023-03-23T21:15:44;97532.91;;;15.93;47.82
34983;BME280;21187;50.976;13.720;2023-03-23T21:20:47;97532.91;;;15.89;47.80
34983;BME280;21187;50.976;13.720;2023-03-23T21:25:51;97534.06;;;15.92;47.75
34983;BME280;21187;50.976;13.720;2023-03-23T21:30:59;97517.69;;;15.92;47.80
34983;BME280;21187;50.976;13.720;2023-03-23T21:36:01;97512.22;;;15.92;47.62
34983;BME280;21187;50.976;13.720;2023-03-23T21:41:12;97509.88;;;15.94;47.84
34983;BME280;21187;50.976;13.720;2023-03-23T21:46:15;97511.84;;;15.90;47.67
34983;BME280;21187;50.976;13.720;2023-03-23T21:51:23;97509.91;;;15.90;47.64
34983;BME280;21187;50.976;13.720;2023-03-23T21:56:26;97503.66;;;15.90;47.68
34983;BME280;21187;50.976;13.720;2023-03-23T22:01:29;97495.44;;;15.93;47.70
34983;BME280;21187;50.976;13.720;2023-03-23T22:06:31;97498.94;;;15.94;47.46
34983;BME280;21187;50.976;13.720;2023-03-23T22:11:36;97495.03;;;15.95;47.27
34983;BME280;21187;50.976;13.720;2023-03-23T22:16:38;97493.53;;;15.90;47.63
34983;BME280;21187;50.976;13.720;2023-03-23T22:21:40;97482.59;;;15.90;47.44
34983;BME280;21187;50.976;13.720;2023-03-23T22:26:42;97478.72;;;15.88;47.65
34983;BME280;21187;50.976;13.720;2023-03-23T22:31:44;97470.13;;;15.89;47.62
34983;BME280;21187;50.976;13.720;2023-03-23T22:36:47;97478.72;;;15.88;47.63
34983;BME280;21187;50.976;13.720;2023-03-23T22:41:48;97469.31;;;15.89;47.65
34983;BME280;21187;50.976;13.720;2023-03-23T22:46:50;97453.50;;;16.14;46.94
34983;BME280;21187;50.976;13.720;2023-03-23T22:51:52;97458.88;;;16.25;46.77
34983;BME280;21187;50.976;13.720;2023-03-23T22:56:54;97452.22;;;16.30;46.31
34983;BME280;21187;50.976;13.720;2023-03-23T23:01:56;97444.66;;;16.41;46.30
34983;BME280;21187;50.976;13.720;2023-03-23T23:06:58;97444.59;;;16.49;45.99
34983;BME280;21187;50.976;13.720;2023-03-23T23:12:13;97435.97;;;16.54;45.80
34983;BME280;21187;50.976;13.720;2023-03-23T23:17:15;97423.81;;;16.55;45.94
34983;BME280;21187;50.976;13.720;2023-03-23T23:22:17;97418.00;;;16.53;45.98
34983;BME280;21187;50.976;13.720;2023-03-23T23:27:20;97417.59;;;16.54;46.10
34983;BME280;21187;50.976;13.720;2023-03-23T23:32:22;97407.13;;;16.45;45.98
34983;BME280;21187;50.976;13.720;2023-03-23T23:37:24;97407.97;;;16.42;46.04
34983;BME280;21187;50.976;13.720;2023-03-23T23:42:26;97404.84;;;16.40;46.08
34983;BME280;21187;50.976;13.720;2023-03-23T23:47:28;97397.78;;;16.43;46.09
34983;BME280;21187;50.976;13.720;2023-03-23T23:52:30;97391.28;;;16.33;46.51
34983;BME280;21187;50.976;13.720;2023-03-23T23:57:32;97392.84;;;16.34;46.31
